createdAt,value
2023-03-18T00:01:07.554Z,16.71
2023-03-18T00:03:37.551Z,16.69
2023-03-18T00:06:13.708Z,16.66
2023-03-18T00:08:42.693Z,16.66
2023-03-18T00:11:11.294Z,16.64
2023-03-18T00:13:38.008Z,16.59
2023-03-18T00:16:06.848Z,16.57
2023-03-18T00:18:34.402Z,16.55
2023-03-18T00:21:01.351Z,16.52
2023-03-18T00:23:28.652Z,16.50
2023-03-18T00:25:57.115Z,16.47
2023-03-18T00:28:24.879Z,16.44
2023-03-18T00:30:52.065Z,16.45
2023-03-18T00:33:19.548Z,16.42
2023-03-18T00:35:50.398Z,16.43
2023-03-18T00:38:23.096Z,16.43
2023-03-18T00:41:10.928Z,16.41
2023-03-18T00:43:46.852Z,16.41
2023-03-18T00:46:16.430Z,16.38
2023-03-18T00:48:47.380Z,16.35
2023-03-18T00:51:17.362Z,16.35
2023-03-18T00:53:47.517Z,16.33
2023-03-18T00:56:15.914Z,16.31
2023-03-18T00:58:42.780Z,16.31
2023-03-18T01:01:10.345Z,16.29
2023-03-18T01:03:37.060Z,16.29
2023-03-18T01:06:04.259Z,16.28
2023-03-18T01:08:31.964Z,16.24
2023-03-18T01:10:58.761Z,16.24
2023-03-18T01:13:25.984Z,16.23
2023-03-18T01:15:54.469Z,16.21
2023-03-18T01:18:21.848Z,16.21
2023-03-18T01:20:48.811Z,16.20
2023-03-18T01:23:17.933Z,16.19
2023-03-18T01:25:45.620Z,16.17
2023-03-18T01:28:18.007Z,16.16
2023-03-18T01:30:45.119Z,16.14
2023-03-18T01:33:12.531Z,16.13
2023-03-18T01:35:39.507Z,16.10
2023-03-18T01:38:06.505Z,16.10
2023-03-18T01:40:40.554Z,16.10
2023-03-18T01:43:17.706Z,16.09
2023-03-18T01:45:49.391Z,16.07
2023-03-18T01:48:18.833Z,16.05
2023-03-18T01:50:51.732Z,16.04
2023-03-18T01:53:21.472Z,16.01
2023-03-18T01:55:50.887Z,16.00
2023-03-18T01:58:25.724Z,15.98
2023-03-18T02:01:01.607Z,15.96
2023-03-18T02:03:29.374Z,15.94
2023-03-18T02:05:56.667Z,15.91
2023-03-18T02:08:24.222Z,15.92
2023-03-18T02:10:51.788Z,15.89
2023-03-18T02:13:18.812Z,15.89
2023-03-18T02:16:00.481Z,15.87
2023-03-18T02:18:35.538Z,15.88
2023-03-18T02:21:32.842Z,15.86
2023-03-18T02:24:16.096Z,15.85
2023-03-18T02:26:53.437Z,15.84
2023-03-18T02:29:31.232Z,15.82
2023-03-18T02:32:06.077Z,15.81
2023-03-18T02:34:35.097Z,15.81
2023-03-18T02:37:02.492Z,15.82
2023-03-18T02:39:31.500Z,15.79
2023-03-18T02:41:58.882Z,15.81
2023-03-18T02:44:44.829Z,15.80
2023-03-18T02:47:40.994Z,15.79
2023-03-18T02:50:08.028Z,15.78
2023-03-18T02:52:34.995Z,15.75
2023-03-18T02:55:02.385Z,15.75
2023-03-18T02:57:48.660Z,15.74
2023-03-18T03:00:16.660Z,15.73
2023-03-18T03:02:43.583Z,15.72
2023-03-18T03:05:10.798Z,15.72
2023-03-18T03:07:38.153Z,15.71
2023-03-18T03:10:08.062Z,15.70
2023-03-18T03:12:34.827Z,15.70
2023-03-18T03:15:01.523Z,15.70
2023-03-18T03:17:30.861Z,15.69
2023-03-18T03:19:57.910Z,15.67
2023-03-18T03:22:24.917Z,15.67
2023-03-18T03:24:51.496Z,15.66
2023-03-18T03:27:18.450Z,15.66
2023-03-18T03:29:45.651Z,15.67
2023-03-18T03:32:13.021Z,15.67
2023-03-18T03:34:39.713Z,15.65
2023-03-18T03:37:07.062Z,15.65
2023-03-18T03:39:33.941Z,15.65
2023-03-18T03:42:00.896Z,15.63
2023-03-18T03:44:27.737Z,15.63
2023-03-18T03:46:55.356Z,15.61
2023-03-18T03:49:23.092Z,15.62
2023-03-18T03:51:49.759Z,15.61
2023-03-18T03:54:16.749Z,15.63
2023-03-18T03:56:43.626Z,15.62
2023-03-18T03:59:10.311Z,15.61
2023-03-18T04:02:01.273Z,15.59
2023-03-18T04:04:28.220Z,15.57
2023-03-18T04:06:56.112Z,15.59
2023-03-18T04:09:22.906Z,15.57
2023-03-18T04:11:49.853Z,15.56
2023-03-18T04:14:17.373Z,15.55
2023-03-18T04:16:44.809Z,15.55
2023-03-18T04:19:11.482Z,15.52
2023-03-18T04:21:38.808Z,15.53
2023-03-18T04:24:06.643Z,15.52
2023-03-18T04:26:34.016Z,15.52
2023-03-18T04:29:03.870Z,15.51
2023-03-18T04:31:32.162Z,15.51
2023-03-18T04:33:59.955Z,15.50
2023-03-18T04:36:28.469Z,15.49
2023-03-18T04:38:57.028Z,15.50
2023-03-18T04:41:24.653Z,15.50
2023-03-18T04:43:52.702Z,15.48
2023-03-18T04:46:19.587Z,15.45
2023-03-18T04:48:47.827Z,15.46
2023-03-18T04:51:15.418Z,15.46
2023-03-18T04:53:43.253Z,15.45
2023-03-18T04:56:11.162Z,15.44
2023-03-18T04:58:45.178Z,15.43
2023-03-18T05:01:18.143Z,15.40
2023-03-18T05:03:44.947Z,15.41
2023-03-18T05:06:21.840Z,15.40
2023-03-18T05:08:54.776Z,15.39
2023-03-18T05:11:25.366Z,15.38
2023-03-18T05:13:53.287Z,15.38
2023-03-18T05:16:20.800Z,15.37
2023-03-18T05:18:49.478Z,15.36
2023-03-18T05:21:16.556Z,15.37
2023-03-18T05:23:43.969Z,15.35
2023-03-18T05:26:11.670Z,15.35
2023-03-18T05:28:40.119Z,15.34
2023-03-18T05:31:15.849Z,15.35
2023-03-18T05:33:44.030Z,15.33
2023-03-18T05:36:13.359Z,15.33
2023-03-18T05:38:51.299Z,15.32
2023-03-18T05:41:18.498Z,15.32
2023-03-18T05:43:47.590Z,15.32
2023-03-18T05:46:14.842Z,15.30
2023-03-18T05:49:04.718Z,15.30
2023-03-18T05:51:41.709Z,15.30
2023-03-18T05:54:13.343Z,15.28
2023-03-18T05:56:45.770Z,15.28
2023-03-18T05:59:14.307Z,15.28
2023-03-18T06:01:45.901Z,15.27
2023-03-18T06:04:12.710Z,15.26
2023-03-18T06:06:40.713Z,15.25
2023-03-18T06:09:12.788Z,15.26
2023-03-18T06:11:43.621Z,15.24
2023-03-18T06:14:11.306Z,15.25
2023-03-18T06:16:39.160Z,15.21
2023-03-18T06:19:06.763Z,15.22
2023-03-18T06:21:33.844Z,15.21
2023-03-18T06:24:01.636Z,15.20
2023-03-18T06:26:29.358Z,15.21
2023-03-18T06:28:56.582Z,15.23
2023-03-18T06:31:25.993Z,15.24
2023-03-18T06:33:53.209Z,15.25
2023-03-18T06:36:22.646Z,15.22
2023-03-18T06:38:53.421Z,15.20
2023-03-18T06:41:22.140Z,15.18
2023-03-18T06:44:02.616Z,15.18
2023-03-18T06:46:30.503Z,15.16
2023-03-18T06:48:58.996Z,15.15
2023-03-18T06:51:30.702Z,15.15
2023-03-18T06:53:58.030Z,15.12
2023-03-18T06:56:26.170Z,15.14
2023-03-18T06:59:02.040Z,15.12
2023-03-18T07:01:30.475Z,15.10
2023-03-18T07:03:59.054Z,15.11
2023-03-18T07:06:27.529Z,15.11
2023-03-18T07:08:54.692Z,15.08
2023-03-18T07:11:22.092Z,15.09
2023-03-18T07:13:49.666Z,15.11
2023-03-18T07:16:23.800Z,15.08
2023-03-18T07:18:50.683Z,15.08
2023-03-18T07:21:18.047Z,15.08
2023-03-18T07:23:44.809Z,15.07
2023-03-18T07:26:12.721Z,15.10
2023-03-18T07:28:39.576Z,15.40
2023-03-18T07:31:06.924Z,15.41
2023-03-18T07:33:33.990Z,15.49
2023-03-18T07:36:00.754Z,15.54
2023-03-18T07:38:27.591Z,15.66
2023-03-18T07:40:54.469Z,15.74
2023-03-18T07:43:21.321Z,15.70
2023-03-18T07:45:48.441Z,15.56
2023-03-18T07:48:15.322Z,15.51
2023-03-18T07:50:42.272Z,15.48
2023-03-18T07:53:09.391Z,15.48
2023-03-18T07:55:36.333Z,15.49
2023-03-18T07:58:04.749Z,15.47
2023-03-18T08:00:32.270Z,15.46
2023-03-18T08:02:58.933Z,15.47
2023-03-18T08:05:25.606Z,15.47
2023-03-18T08:07:52.247Z,15.46
2023-03-18T08:10:19.454Z,15.46
2023-03-18T08:12:53.207Z,15.46
2023-03-18T08:15:26.078Z,15.46
2023-03-18T08:17:53.871Z,15.46
2023-03-18T08:20:21.571Z,15.45
2023-03-18T08:22:48.460Z,15.45
2023-03-18T08:25:15.193Z,15.45
2023-03-18T08:27:44.399Z,15.45
2023-03-18T08:30:12.358Z,15.45
2023-03-18T08:32:39.982Z,15.46
2023-03-18T08:35:07.216Z,15.47
2023-03-18T08:37:33.820Z,15.48
2023-03-18T08:40:00.635Z,15.49
2023-03-18T08:42:27.879Z,15.48
2023-03-18T08:44:54.961Z,15.49
2023-03-18T08:47:21.685Z,15.49
2023-03-18T08:49:51.258Z,15.51
2023-03-18T08:52:18.943Z,15.49
2023-03-18T08:54:45.903Z,15.50
2023-03-18T08:57:12.806Z,15.50
2023-03-18T08:59:39.462Z,15.50
2023-03-18T09:02:06.228Z,15.52
2023-03-18T09:04:32.902Z,15.53
2023-03-18T09:07:00.874Z,15.56
2023-03-18T09:09:40.816Z,15.57
2023-03-18T09:12:11.835Z,15.57
2023-03-18T09:14:38.803Z,15.57
2023-03-18T09:17:06.417Z,15.58
2023-03-18T09:19:33.318Z,15.56
2023-03-18T09:22:00.017Z,15.56
2023-03-18T09:24:26.979Z,15.57
2023-03-18T09:26:53.758Z,15.58
2023-03-18T09:29:20.636Z,15.59
2023-03-18T09:31:47.375Z,15.58
2023-03-18T09:34:14.534Z,15.59
2023-03-18T09:36:42.922Z,15.59
2023-03-18T09:39:10.098Z,15.59
2023-03-18T09:41:55.215Z,15.60
2023-03-18T09:44:23.902Z,15.62
2023-03-18T09:47:00.254Z,15.78
2023-03-18T09:49:54.687Z,15.74
2023-03-18T09:52:30.397Z,15.71
2023-03-18T09:55:03.733Z,15.70
2023-03-18T09:57:42.471Z,15.69
2023-03-18T10:00:29.987Z,15.68
2023-03-18T10:03:06.763Z,15.73
2023-03-18T10:05:44.168Z,15.66
2023-03-18T10:08:24.141Z,15.65
2023-03-18T10:10:51.317Z,15.63
2023-03-18T10:13:25.572Z,15.63
2023-03-18T10:15:58.666Z,15.63
2023-03-18T10:18:29.528Z,15.63
2023-03-18T10:20:56.372Z,15.64
2023-03-18T10:23:31.935Z,15.63
2023-03-18T10:26:06.098Z,15.62
2023-03-18T10:28:50.918Z,15.59
2023-03-18T10:32:02.928Z,15.60
2023-03-18T10:35:04.025Z,15.60
2023-03-18T10:38:09.978Z,15.60
2023-03-18T10:40:41.285Z,15.60
2023-03-18T10:43:17.985Z,15.57
2023-03-18T10:45:46.983Z,15.55
2023-03-18T10:48:35.243Z,15.58
2023-03-18T10:51:23.569Z,15.56
2023-03-18T10:53:51.063Z,15.56
2023-03-18T10:56:19.046Z,15.56
2023-03-18T10:58:46.499Z,15.53
2023-03-18T11:01:19.058Z,15.53
2023-03-18T11:04:05.652Z,15.51
2023-03-18T11:06:45.245Z,15.51
2023-03-18T11:09:17.775Z,15.50
2023-03-18T11:11:49.306Z,15.50
2023-03-18T11:14:21.359Z,15.47
2023-03-18T11:16:59.598Z,15.47
2023-03-18T11:20:01.228Z,15.46
2023-03-18T11:22:28.139Z,15.44
2023-03-18T11:25:02.277Z,15.45
2023-03-18T11:27:37.572Z,15.46
2023-03-18T11:30:38.804Z,15.45
2023-03-18T11:33:16.313Z,15.44
2023-03-18T11:35:51.889Z,15.40
2023-03-18T11:38:28.657Z,15.40
2023-03-18T11:41:23.277Z,15.40
2023-03-18T11:44:01.813Z,15.39
2023-03-18T11:46:55.442Z,15.37
2023-03-18T11:49:28.461Z,15.39
2023-03-18T11:52:01.138Z,15.39
2023-03-18T11:54:39.933Z,15.39
2023-03-18T11:57:40.488Z,15.38
2023-03-18T12:00:29.509Z,15.37
2023-03-18T12:03:01.953Z,15.37
2023-03-18T12:05:41.939Z,15.38
2023-03-18T12:09:03.281Z,15.39
2023-03-18T12:11:57.869Z,15.41
2023-03-18T12:14:41.021Z,15.40
2023-03-18T12:17:25.888Z,15.41
2023-03-18T12:20:26.525Z,15.39
2023-03-18T12:22:56.551Z,15.42
2023-03-18T12:26:17.501Z,15.41
2023-03-18T12:28:51.978Z,15.39
2023-03-18T12:31:29.149Z,15.39
2023-03-18T12:34:04.428Z,15.40
2023-03-18T12:36:45.101Z,15.41
2023-03-18T12:39:40.551Z,15.43
2023-03-18T12:42:13.601Z,15.44
2023-03-18T12:44:51.920Z,15.44
2023-03-18T12:47:33.205Z,15.44
2023-03-18T12:50:23.233Z,15.45
2023-03-18T12:53:17.057Z,15.47
2023-03-18T12:55:54.683Z,15.50
2023-03-18T12:58:24.360Z,15.57
2023-03-18T13:01:09.807Z,15.60
2023-03-18T13:03:40.238Z,15.63
2023-03-18T13:06:14.568Z,15.70
2023-03-18T13:09:22.428Z,15.80
2023-03-18T13:11:59.753Z,15.91
2023-03-18T13:14:26.516Z,16.01
2023-03-18T13:16:55.406Z,16.11
2023-03-18T13:19:22.244Z,16.18
2023-03-18T13:21:56.806Z,16.31
2023-03-18T13:24:49.739Z,16.36
2023-03-18T13:27:37.838Z,16.45
2023-03-18T13:30:30.072Z,16.51
2023-03-18T13:33:25.746Z,16.60
2023-03-18T13:36:25.080Z,16.64
2023-03-18T13:39:15.130Z,16.66
2023-03-18T13:41:47.639Z,16.72
2023-03-18T13:47:09.182Z,16.76
2023-03-18T13:49:39.388Z,16.75
2023-03-18T13:52:23.456Z,16.78
2023-03-18T13:54:50.342Z,16.76
2023-03-18T13:57:29.070Z,16.76
2023-03-18T14:17:53.419Z,16.73
2023-03-18T14:20:21.738Z,16.70
2023-03-18T14:22:54.893Z,16.71
2023-03-18T14:25:30.752Z,16.74
2023-03-18T14:28:16.428Z,16.76
2023-03-18T14:30:45.888Z,16.77
2023-03-18T14:33:18.724Z,16.76
2023-03-18T14:36:08.622Z,16.79
2023-03-18T14:38:55.404Z,16.77
2023-03-18T14:41:30.894Z,16.79
2023-03-18T14:44:07.987Z,16.79
2023-03-18T14:46:41.322Z,16.79
2023-03-18T14:49:33.051Z,16.79
2023-03-18T14:52:07.411Z,16.76
2023-03-18T14:54:43.664Z,16.73
2023-03-18T14:57:10.935Z,16.69
2023-03-18T14:59:37.597Z,16.71
2023-03-18T15:02:11.865Z,16.67
2023-03-18T15:04:39.420Z,16.68
2023-03-18T15:07:08.313Z,16.64
2023-03-18T15:09:35.794Z,16.59
2023-03-18T15:12:17.137Z,16.55
2023-03-18T15:14:43.972Z,16.55
2023-03-18T15:17:17.330Z,16.56
2023-03-18T15:19:44.986Z,16.48
2023-03-18T15:22:21.051Z,16.44
2023-03-18T15:24:48.296Z,16.41
2023-03-18T15:27:19.571Z,16.40
2023-03-18T15:29:58.367Z,16.42
2023-03-18T15:32:26.619Z,16.47
2023-03-18T15:34:54.730Z,16.56
2023-03-18T15:37:30.789Z,16.64
2023-03-18T15:39:59.033Z,16.64
2023-03-18T15:42:28.260Z,16.63
2023-03-18T15:44:58.834Z,16.62
2023-03-18T15:47:34.847Z,16.61
2023-03-18T15:50:15.120Z,16.80
2023-03-18T15:52:42.972Z,16.93
2023-03-18T15:55:30.341Z,17.06
2023-03-18T15:57:58.768Z,17.19
2023-03-18T16:00:25.865Z,17.22
2023-03-18T16:02:53.725Z,17.22
2023-03-18T16:05:26.294Z,17.24
2023-03-18T16:07:54.388Z,17.06
2023-03-18T16:10:23.790Z,16.94
2023-03-18T16:13:01.156Z,16.91
2023-03-18T16:15:29.803Z,16.87
2023-03-18T16:17:57.801Z,16.85
2023-03-18T16:20:29.427Z,16.85
2023-03-18T16:22:56.497Z,16.81
2023-03-18T16:25:24.790Z,16.79
2023-03-18T16:27:55.839Z,16.79
2023-03-18T16:30:26.723Z,16.75
2023-03-18T16:32:54.280Z,16.69
2023-03-18T16:35:24.542Z,16.67
2023-03-18T16:37:52.183Z,16.64
2023-03-18T16:40:24.742Z,16.62
2023-03-18T16:42:52.729Z,16.60
2023-03-18T16:45:23.611Z,16.62
2023-03-18T16:47:51.974Z,16.56
2023-03-18T16:50:22.505Z,16.55
2023-03-18T16:52:50.442Z,16.53
2023-03-18T16:55:19.539Z,16.51
2023-03-18T16:58:04.458Z,16.48
2023-03-18T17:00:32.251Z,16.48
2023-03-18T17:03:00.897Z,16.92
2023-03-18T17:05:28.614Z,17.02
2023-03-18T17:07:55.946Z,17.15
2023-03-18T17:10:25.880Z,17.12
2023-03-18T17:13:02.284Z,17.24
2023-03-18T17:15:32.009Z,17.32
2023-03-18T17:17:59.779Z,17.45
2023-03-18T17:20:31.457Z,17.58
2023-03-18T17:22:59.656Z,17.75
2023-03-18T17:25:28.400Z,17.86
2023-03-18T17:28:01.229Z,18.00
2023-03-18T17:30:30.536Z,17.79
2023-03-18T17:32:57.166Z,17.75
2023-03-18T17:35:25.298Z,17.78
2023-03-18T17:37:53.930Z,17.80
2023-03-18T17:40:23.229Z,17.88
2023-03-18T17:42:51.072Z,17.95
2023-03-18T17:45:29.652Z,17.99
2023-03-18T17:48:15.436Z,18.07
2023-03-18T17:50:44.248Z,18.16
2023-03-18T17:53:27.714Z,18.19
2023-03-18T17:55:55.792Z,18.22
2023-03-18T17:58:26.054Z,18.22
2023-03-18T18:00:54.133Z,18.27
2023-03-18T18:03:26.728Z,18.36
2023-03-18T18:05:55.407Z,18.38
2023-03-18T18:08:25.466Z,18.43
2023-03-18T18:11:10.792Z,18.42
2023-03-18T18:13:37.587Z,18.46
2023-03-18T18:16:04.632Z,18.45
2023-03-18T18:18:32.627Z,18.45
2023-03-18T18:21:04.847Z,18.50
2023-03-18T18:23:39.195Z,18.52
2023-03-18T18:26:08.475Z,18.55
2023-03-18T18:28:36.971Z,18.55
2023-03-18T18:31:06.395Z,18.57
2023-03-18T18:33:34.177Z,18.60
2023-03-18T18:36:01.538Z,18.60
2023-03-18T18:38:28.633Z,18.60
2023-03-18T18:40:57.424Z,18.59
2023-03-18T18:43:25.280Z,18.59
2023-03-18T18:45:54.117Z,18.58
2023-03-18T18:48:31.029Z,18.59
2023-03-18T18:50:59.382Z,18.64
2023-03-18T18:53:32.029Z,18.64
2023-03-18T18:56:01.253Z,18.63
2023-03-18T18:58:30.183Z,18.67
2023-03-18T19:00:58.261Z,18.66
2023-03-18T19:03:30.380Z,18.67
2023-03-18T19:05:58.218Z,18.66
2023-03-18T19:08:27.707Z,18.68
2023-03-18T19:10:56.634Z,18.69
2023-03-18T19:13:25.286Z,18.71
2023-03-18T19:15:54.235Z,18.70
2023-03-18T19:18:24.803Z,18.70
2023-03-18T19:20:54.348Z,18.71
2023-03-18T19:23:28.638Z,18.70
2023-03-18T19:25:57.899Z,18.69
2023-03-18T19:28:47.854Z,18.71
2023-03-18T19:31:20.577Z,18.72
2023-03-18T19:33:50.569Z,18.71
2023-03-18T19:36:22.256Z,18.71
2023-03-18T19:38:49.553Z,18.70
2023-03-18T19:41:16.489Z,18.69
2023-03-18T19:43:43.345Z,18.70
2023-03-18T19:46:25.446Z,18.75
2023-03-18T19:48:52.760Z,18.76
2023-03-18T19:51:19.368Z,18.72
2023-03-18T19:53:47.035Z,18.71
2023-03-18T19:56:24.458Z,18.75
2023-03-18T19:58:57.028Z,18.81
2023-03-18T20:01:27.736Z,18.82
2023-03-18T20:03:58.601Z,18.78
2023-03-18T20:06:26.283Z,18.79
2023-03-18T20:08:52.968Z,18.77
2023-03-18T20:11:23.212Z,18.84
2023-03-18T20:13:49.959Z,18.85
2023-03-18T20:16:19.424Z,18.82
2023-03-18T20:18:46.414Z,18.82
2023-03-18T20:21:22.368Z,18.84
2023-03-18T20:23:50.899Z,18.83
2023-03-18T20:26:17.709Z,18.87
2023-03-18T20:28:45.696Z,18.86
2023-03-18T20:31:12.848Z,18.87
2023-03-18T20:33:39.792Z,18.86
2023-03-18T20:36:10.691Z,18.84
2023-03-18T20:38:39.747Z,18.86
2023-03-18T20:41:07.236Z,18.90
2023-03-18T20:43:34.249Z,18.90
2023-03-18T20:46:02.132Z,18.87
2023-03-18T20:48:29.092Z,18.89
2023-03-18T20:50:56.113Z,18.87
2023-03-18T20:53:26.016Z,18.86
2023-03-18T20:55:52.982Z,18.89
2023-03-18T20:58:22.326Z,18.90
2023-03-18T21:00:49.204Z,18.91
2023-03-18T21:03:32.273Z,18.93
2023-03-18T21:06:00.638Z,18.92
2023-03-18T21:08:28.614Z,18.91
2023-03-18T21:10:59.019Z,18.90
2023-03-18T21:13:39.036Z,18.93
2023-03-18T21:16:14.828Z,18.96
2023-03-18T21:18:43.607Z,18.94
2023-03-18T21:21:23.792Z,18.96
2023-03-18T21:23:52.872Z,18.97
2023-03-18T21:26:20.075Z,18.92
2023-03-18T21:28:46.922Z,18.89
2023-03-18T21:31:31.097Z,18.87
2023-03-18T21:33:57.812Z,18.83
2023-03-18T21:36:24.894Z,18.82
2023-03-18T21:38:52.061Z,18.78
2023-03-18T21:41:28.601Z,18.74
2023-03-18T21:43:55.677Z,18.71
2023-03-18T21:46:24.665Z,18.69
2023-03-18T21:48:52.124Z,18.69
2023-03-18T21:51:40.399Z,18.70
2023-03-18T21:54:17.965Z,18.66
2023-03-18T21:56:44.783Z,18.58
2023-03-18T21:59:12.442Z,18.57
2023-03-18T22:01:39.200Z,18.58
2023-03-18T22:04:06.170Z,18.54
2023-03-18T22:06:34.106Z,18.47
2023-03-18T22:09:01.058Z,18.43
2023-03-18T22:11:27.961Z,18.37
2023-03-18T22:13:55.311Z,18.31
2023-03-18T22:16:22.069Z,18.28
2023-03-18T22:18:48.827Z,18.25
2023-03-18T22:21:21.693Z,18.20
2023-03-18T22:23:48.618Z,18.16
2023-03-18T22:26:17.301Z,18.11
2023-03-18T22:28:44.965Z,18.06
2023-03-18T22:31:18.183Z,18.05
2023-03-18T22:33:45.295Z,17.99
2023-03-18T22:36:13.918Z,17.99
2023-03-18T22:38:40.696Z,17.95
2023-03-18T22:41:17.740Z,17.93
2023-03-18T22:43:44.766Z,17.90
2023-03-18T22:46:11.868Z,17.90
2023-03-18T22:48:39.146Z,17.88
2023-03-18T22:51:06.383Z,17.86
2023-03-18T22:53:40.010Z,17.84
2023-03-18T22:56:16.947Z,17.80
2023-03-18T22:58:44.277Z,17.77
2023-03-18T23:01:20.096Z,17.77
2023-03-18T23:03:47.845Z,17.75
2023-03-18T23:06:20.872Z,17.73
2023-03-18T23:08:48.115Z,17.73
2023-03-18T23:11:16.532Z,17.70
2023-03-18T23:13:46.212Z,17.68
2023-03-18T23:16:20.592Z,17.66
2023-03-18T23:18:47.948Z,17.65
2023-03-18T23:21:17.599Z,17.62
2023-03-18T23:23:45.035Z,17.62
2023-03-18T23:26:11.926Z,17.61
2023-03-18T23:28:44.473Z,17.59
2023-03-18T23:31:12.360Z,17.57
2023-03-18T23:33:39.256Z,17.58
2023-03-18T23:36:06.135Z,17.57
2023-03-18T23:38:32.852Z,17.53
2023-03-18T23:40:59.602Z,17.52
2023-03-18T23:43:26.796Z,17.50
2023-03-18T23:45:53.714Z,17.47
2023-03-18T23:48:20.431Z,17.45
2023-03-18T23:50:47.258Z,17.43
2023-03-18T23:53:13.893Z,17.41
2023-03-18T23:55:40.702Z,17.40
2023-03-18T23:58:07.452Z,17.40
